Time;durP1;ratioP1;P1;durP2;ratioP2;P2;SDS_P1;SDS_P2;PMS_P1;PMS_P2;Temp;Humidity;BMP_temperature;BMP_pressure;BME280_temperature;BME280_humidity;BME280_pressure;Samples;Min_cycle;Max_cycle;Signal;HPM_P1;HPM_P2
2023/09/23 00:00:22;;;;;;;0.47;0.40;;;17.70;79.00;16.80;95907.00;;;;5065550;28;20257;-84
2023/09/23 00:02:49;;;;;;;0.27;0.27;;;17.70;79.00;16.80;95913.00;;;;5063646;28;20208;-84
2023/09/23 00:05:17;;;;;;;0.40;0.20;;;17.70;78.80;16.80;95906.00;;;;5069479;28;20219;-84
2023/09/23 00:07:45;;;;;;;0.30;0.23;;;17.70;78.80;16.80;95906.00;;;;5064130;28;20199;-85
2023/09/23 00:10:12;;;;;;;0.40;0.30;;;17.70;79.00;16.80;95916.00;;;;5068243;28;20223;-86
2023/09/23 00:12:41;;;;;;;0.43;0.30;;;17.70;78.80;16.80;95917.00;;;;5072758;28;20196;-84
2023/09/23 00:15:11;;;;;;;0.50;0.37;;;17.70;78.80;16.80;95915.00;;;;5072132;28;20222;-84
2023/09/23 00:17:45;;;;;;;0.50;0.40;;;17.70;78.80;16.80;95909.00;;;;5069473;28;20695;-85
2023/09/23 00:20:17;;;;;;;0.50;0.20;;;17.70;78.80;16.70;95916.00;;;;5073195;28;20741;-84
2023/09/23 00:22:45;;;;;;;0.70;0.20;;;17.70;78.90;16.80;95920.00;;;;5070163;28;20284;-84
2023/09/23 00:25:13;;;;;;;1.33;0.30;;;17.70;78.90;16.70;95931.00;;;;5072296;28;20246;-84
2023/09/23 00:27:41;;;;;;;1.33;0.60;;;17.70;78.70;16.70;95935.00;;;;5064618;28;20196;-84
2023/09/23 00:30:12;;;;;;;0.40;0.40;;;17.60;78.50;16.70;95935.00;;;;5074859;28;20216;-84
2023/09/23 00:32:41;;;;;;;0.53;0.53;;;17.70;78.40;16.70;95940.00;;;;5087099;28;20735;-83
2023/09/23 00:35:12;;;;;;;0.30;0.20;;;17.60;78.00;16.70;95925.00;;;;5068283;28;20277;-83
2023/09/23 00:37:40;;;;;;;0.80;0.30;;;17.60;77.90;16.70;95928.00;;;;5087485;28;20603;-84
2023/09/23 00:40:16;;;;;;;0.20;0.20;;;17.60;77.80;16.70;95929.00;;;;5070283;28;20195;-84
2023/09/23 00:42:47;;;;;;;2.40;0.37;;;17.60;78.10;16.70;95935.00;;;;5066809;28;20201;-83
2023/09/23 00:45:17;;;;;;;0.30;0.30;;;17.60;78.30;16.70;95932.00;;;;5066926;28;20781;-84
2023/09/23 00:47:47;;;;;;;0.30;0.30;;;17.60;78.00;16.70;95936.00;;;;5070074;28;20234;-84
2023/09/23 00:50:19;;;;;;;0.30;0.30;;;17.50;78.00;16.70;95944.00;;;;5070704;28;20302;-84
2023/09/23 00:52:51;;;;;;;0.30;0.30;;;17.60;78.30;16.60;95947.00;;;;5055709;28;20684;-84
2023/09/23 00:55:20;;;;;;;0.30;0.30;;;17.50;78.10;16.60;95953.00;;;;5067945;28;20586;-85
2023/09/23 00:57:48;;;;;;;0.20;0.20;;;17.50;78.20;16.60;95953.00;;;;5073799;28;20214;-84
2023/09/23 01:00:24;;;;;;;0.40;0.30;;;17.60;78.40;16.60;95963.00;;;;5067635;28;20261;-84
2023/09/23 01:02:55;;;;;;;0.20;0.20;;;17.60;78.50;16.60;95973.00;;;;5074605;28;20222;-84
2023/09/23 01:05:23;;;;;;;0.80;0.40;;;17.60;78.50;16.60;95972.00;;;;5070591;28;20227;-84
2023/09/23 01:07:51;;;;;;;0.47;0.30;;;17.50;78.50;16.60;95985.00;;;;5085226;28;20202;-84
2023/09/23 01:10:19;;;;;;;0.43;0.30;;;17.50;78.70;16.60;95979.00;;;;5069506;28;20215;-84
2023/09/23 01:12:47;;;;;;;0.30;0.20;;;17.50;78.70;16.60;95970.00;;;;5049102;28;20215;-84
2023/09/23 01:15:17;;;;;;;0.97;0.37;;;17.50;79.40;16.60;95971.00;;;;5071771;28;20218;-84
2023/09/23 01:17:47;;;;;;;0.43;0.30;;;17.50;78.60;16.60;95984.00;;;;5065500;28;20254;-84
2023/09/23 01:20:17;;;;;;;0.40;0.40;;;17.50;78.60;16.60;95983.00;;;;5050409;28;20688;-85
2023/09/23 01:22:47;;;;;;;1.10;0.33;;;17.60;78.70;16.60;95990.00;;;;5064865;28;20208;-84
2023/09/23 01:25:14;;;;;;;0.50;0.37;;;17.60;78.70;16.60;96003.00;;;;5065704;28;20741;-84
2023/09/23 01:27:42;;;;;;;0.30;0.30;;;17.60;78.70;16.60;96003.00;;;;5070926;28;20283;-84
2023/09/23 01:30:12;;;;;;;0.47;0.30;;;17.50;78.60;16.60;96005.00;;;;5069604;28;20227;-84
2023/09/23 01:32:51;;;;;;;0.70;0.70;;;17.50;78.60;16.60;96008.00;;;;5063594;28;20211;-84
2023/09/23 01:35:20;;;;;;;0.33;0.33;;;17.60;78.50;16.60;96018.00;;;;5070487;28;20295;-84
2023/09/23 01:37:50;;;;;;;0.40;0.40;;;17.50;78.40;16.60;96016.00;;;;5067944;28;20227;-84
2023/09/23 01:40:18;;;;;;;0.20;0.20;;;17.60;79.40;16.70;96017.00;;;;5070071;28;20196;-83
2023/09/23 01:42:48;;;;;;;0.83;0.40;;;17.50;78.70;16.60;96027.00;;;;5075442;28;20212;-83
2023/09/23 01:45:16;;;;;;;0.30;0.30;;;17.50;78.60;16.60;96035.00;;;;5085876;28;20285;-83
2023/09/23 01:47:44;;;;;;;0.40;0.40;;;17.60;78.60;16.60;96035.00;;;;5067365;28;20201;-83
2023/09/23 01:50:13;;;;;;;0.20;0.20;;;17.60;78.60;16.60;96035.00;;;;5079214;28;20220;-83
2023/09/23 01:52:41;;;;;;;0.67;0.30;;;17.60;78.60;16.70;96037.00;;;;5075429;28;20192;-82
2023/09/23 01:55:12;;;;;;;0.30;0.30;;;17.60;78.70;16.70;96043.00;;;;5074250;28;20216;-83
2023/09/23 01:57:39;;;;;;;0.20;0.20;;;17.60;78.70;16.70;96038.00;;;;5075244;28;20192;-83
2023/09/23 02:00:10;;;;;;;0.57;0.23;;;17.60;78.60;16.70;96038.00;;;;5071756;28;20196;-83
2023/09/23 02:02:38;;;;;;;0.97;0.20;;;17.60;78.70;16.70;96045.00;;;;5065643;28;20204;-83
2023/09/23 02:05:06;;;;;;;0.33;0.30;;;17.60;78.70;16.70;96049.00;;;;5078731;28;20603;-82
2023/09/23 02:07:34;;;;;;;1.07;0.37;;;17.60;78.80;16.70;96054.00;;;;5076499;28;20197;-83
2023/09/23 02:10:01;;;;;;;1.33;0.40;;;17.60;78.80;16.60;96052.00;;;;5079587;28;20267;-83
2023/09/23 02:12:38;;;;;;;0.80;0.20;;;17.60;78.70;16.60;96056.00;;;;5063496;28;20200;-83
2023/09/23 02:15:07;;;;;;;0.33;0.27;;;17.60;78.70;16.60;96056.00;;;;5077119;28;20654;-83
2023/09/23 02:17:36;;;;;;;0.37;0.30;;;17.60;78.70;16.70;96063.00;;;;5069505;28;20216;-83
2023/09/23 02:20:09;;;;;;;0.50;0.30;;;17.60;78.80;16.60;96070.00;;;;5073019;28;20254;-83
2023/09/23 02:22:37;;;;;;;0.30;0.30;;;17.60;78.80;16.70;96069.00;;;;5078155;28;20241;-83
2023/09/23 02:25:07;;;;;;;0.77;0.30;;;17.60;78.90;16.70;96071.00;;;;5072073;28;20782;-83
2023/09/23 02:27:36;;;;;;;0.40;0.40;;;17.60;78.80;16.70;96071.00;;;;5071162;28;20201;-83
2023/09/23 02:30:09;;;;;;;0.40;0.40;;;17.60;78.90;16.70;96059.00;;;;5082394;28;20214;-83
2023/09/23 02:32:40;;;;;;;0.73;0.47;;;17.60;79.00;16.70;96068.00;;;;5076361;28;20723;-83
2023/09/23 02:35:10;;;;;;;0.20;0.20;;;17.60;79.10;16.70;96067.00;;;;5079820;28;20227;-82
2023/09/23 02:37:42;;;;;;;0.40;0.40;;;17.60;79.10;16.70;96063.00;;;;5071767;28;20196;-83
2023/09/23 02:40:14;;;;;;;0.27;0.27;;;17.70;79.20;16.80;96065.00;;;;5073634;28;20276;-83
2023/09/23 02:42:44;;;;;;;0.37;0.37;;;17.70;79.30;16.80;96071.00;;;;5078804;28;20222;-83
2023/09/23 02:45:14;;;;;;;0.50;0.40;;;17.70;79.30;16.80;96069.00;;;;5076249;28;20212;-83
2023/09/23 02:47:43;;;;;;;0.70;0.40;;;17.70;79.30;16.80;96065.00;;;;5072634;28;20279;-83
2023/09/23 02:50:13;;;;;;;0.57;0.37;;;17.70;79.30;16.80;96061.00;;;;5079484;28;20204;-83
2023/09/23 02:52:42;;;;;;;0.30;0.30;;;17.70;79.20;16.80;96051.00;;;;5080046;28;20196;-83
2023/09/23 02:55:12;;;;;;;0.70;0.40;;;17.70;79.20;16.90;96057.00;;;;5073523;28;20239;-83
2023/09/23 02:57:40;;;;;;;0.73;0.60;;;17.70;79.10;16.90;96054.00;;;;5072248;28;20257;-83
2023/09/23 03:00:16;;;;;;;0.27;0.27;;;17.80;79.20;16.90;96052.00;;;;5094301;28;20615;-83
2023/09/23 03:02:48;;;;;;;0.30;0.30;;;17.80;79.20;16.90;96062.00;;;;5073411;28;20278;-83
2023/09/23 03:05:17;;;;;;;0.30;0.27;;;17.80;79.20;16.90;96056.00;;;;5091154;28;20207;-83
2023/09/23 03:07:48;;;;;;;0.30;0.30;;;17.80;79.20;16.90;96066.00;;;;5079014;28;20203;-83
2023/09/23 03:10:19;;;;;;;1.03;0.50;;;17.80;79.10;16.90;96067.00;;;;5076785;28;20199;-83
2023/09/23 03:13:01;;;;;;;0.47;0.40;;;17.80;79.20;16.90;96067.00;;;;5070108;28;20215;-83
2023/09/23 03:15:34;;;;;;;0.30;0.30;;;17.80;79.20;16.90;96071.00;;;;5068918;28;20285;-83
2023/09/23 03:18:01;;;;;;;2.50;0.40;;;17.80;79.10;17.00;96076.00;;;;5070188;28;20206;-84
2023/09/23 03:20:28;;;;;;;1.07;0.30;;;17.80;79.20;16.90;96070.00;;;;5072453;28;20204;-83
2023/09/23 03:22:56;;;;;;;0.40;0.40;;;17.80;79.30;17.00;96069.00;;;;5070164;28;20195;-83
2023/09/23 03:25:25;;;;;;;0.37;0.30;;;17.80;79.20;17.00;96085.00;;;;5074296;28;20212;-83
2023/09/23 03:27:53;;;;;;;0.93;0.53;;;17.80;79.20;17.00;96067.00;;;;5076376;28;20196;-83
2023/09/23 03:30:21;;;;;;;0.90;0.40;;;17.80;79.30;17.00;96070.00;;;;5079020;28;20284;-83
2023/09/23 03:32:49;;;;;;;0.53;0.50;;;17.80;79.20;17.00;96083.00;;;;5076026;28;20200;-83
2023/09/23 03:35:17;;;;;;;0.40;0.40;;;17.80;79.30;17.00;96089.00;;;;5073453;28;20843;-83
2023/09/23 03:37:50;;;;;;;0.40;0.40;;;17.80;79.40;17.00;96076.00;;;;5064570;28;20204;-83
2023/09/23 03:40:24;;;;;;;0.50;0.40;;;17.90;79.50;17.00;96086.00;;;;5070631;28;20792;-84
2023/09/23 03:42:52;;;;;;;0.60;0.30;;;17.90;79.60;17.00;96088.00;;;;5067565;28;20281;-83
2023/09/23 03:45:19;;;;;;;0.40;0.40;;;17.90;79.50;17.00;96096.00;;;;5063110;28;20212;-83
2023/09/23 03:47:47;;;;;;;0.40;0.40;;;17.90;79.50;17.00;96099.00;;;;5074302;28;20199;-83
2023/09/23 03:50:17;;;;;;;0.67;0.47;;;17.90;79.30;17.00;96097.00;;;;5067034;28;20197;-83
2023/09/23 03:52:45;;;;;;;0.73;0.50;;;17.90;79.40;17.00;96109.00;;;;5076737;28;20226;-83
2023/09/23 03:55:13;;;;;;;1.17;0.60;;;17.90;79.40;17.00;96118.00;;;;5077032;28;20287;-83
2023/09/23 03:57:42;;;;;;;1.27;0.40;;;17.90;79.40;17.10;96110.00;;;;5074868;28;20207;-82
2023/09/23 04:00:16;;;;;;;0.40;0.40;;;17.90;79.40;17.10;96120.00;;;;5077254;28;20271;-84
2023/09/23 04:02:47;;;;;;;0.40;0.40;;;17.90;79.40;17.10;96121.00;;;;5072487;28;20203;-83
2023/09/23 04:05:16;;;;;;;0.60;0.50;;;18.00;79.40;17.10;96121.00;;;;5068090;28;20738;-83
2023/09/23 04:07:49;;;;;;;0.60;0.60;;;18.00;79.40;17.10;96126.00;;;;5071018;28;20632;-83
2023/09/23 04:10:18;;;;;;;0.60;0.50;;;18.00;79.40;17.00;96132.00;;;;5072877;28;20370;-83
2023/09/23 04:12:46;;;;;;;0.43;0.40;;;18.00;79.30;17.10;96142.00;;;;5067964;28;20273;-83
2023/09/23 04:15:13;;;;;;;0.60;0.50;;;18.00;79.30;17.10;96152.00;;;;5062814;28;20727;-83
2023/09/23 04:17:40;;;;;;;1.43;0.57;;;18.00;79.30;17.10;96151.00;;;;5072545;28;20208;-83
2023/09/23 04:20:10;;;;;;;0.40;0.40;;;18.00;79.30;17.00;96159.00;;;;5084339;28;20195;-83
2023/09/23 04:22:41;;;;;;;0.30;0.30;;;18.00;79.30;17.10;96164.00;;;;5069260;28;20192;-83
2023/09/23 04:25:10;;;;;;;0.40;0.40;;;18.00;79.40;17.10;96169.00;;;;5077516;28;20223;-83
2023/09/23 04:27:38;;;;;;;0.97;0.53;;;18.00;79.40;17.10;96174.00;;;;5066898;28;20208;-83
2023/09/23 04:30:09;;;;;;;0.37;0.37;;;18.00;79.40;17.10;96167.00;;;;5077582;28;20192;-83
2023/09/23 04:32:39;;;;;;;0.50;0.50;;;18.00;79.30;17.10;96165.00;;;;5067256;28;20282;-83
2023/09/23 04:35:07;;;;;;;0.50;0.50;;;18.00;79.30;17.10;96164.00;;;;5070623;28;20707;-83
2023/09/23 04:37:37;;;;;;;0.60;0.60;;;18.00;79.30;17.10;96168.00;;;;5070410;28;20204;-83
2023/09/23 04:40:10;;;;;;;0.60;0.60;;;18.00;79.30;17.10;96175.00;;;;5070296;28;20228;-83
2023/09/23 04:42:39;;;;;;;0.60;0.60;;;18.00;79.10;17.10;96190.00;;;;5067341;28;20228;-83
2023/09/23 04:45:07;;;;;;;0.70;0.70;;;18.00;79.00;17.10;96185.00;;;;5073495;28;20247;-83
2023/09/23 04:47:35;;;;;;;1.13;0.70;;;18.00;79.00;17.10;96193.00;;;;5067846;28;20653;-84
2023/09/23 04:50:03;;;;;;;0.50;0.50;;;18.00;78.90;17.10;96195.00;;;;5074058;28;20204;-83
2023/09/23 04:52:30;;;;;;;0.87;0.70;;;18.00;78.80;17.20;96199.00;;;;5089982;28;20224;-83
2023/09/23 04:54:57;;;;;;;0.80;0.80;;;18.00;79.00;17.10;96205.00;;;;5070898;28;20293;-83
2023/09/23 04:57:26;;;;;;;1.37;0.90;;;18.00;78.90;17.10;96209.00;;;;5070137;28;20272;-83
2023/09/23 04:59:54;;;;;;;0.80;0.80;;;18.00;79.40;17.20;96206.00;;;;5067848;28;20237;-83
2023/09/23 05:02:22;;;;;;;0.70;0.70;;;18.00;78.50;17.10;96201.00;;;;5074780;28;20275;-84
2023/09/23 05:04:53;;;;;;;0.90;0.90;;;18.00;78.60;17.20;96205.00;;;;5071836;28;20251;-83
2023/09/23 05:07:20;;;;;;;0.50;0.50;;;18.00;78.60;17.10;96214.00;;;;5070935;28;20192;-83
2023/09/23 05:09:48;;;;;;;0.80;0.80;;;18.00;78.50;17.20;96215.00;;;;5074971;28;20683;-83
2023/09/23 05:12:15;;;;;;;0.83;0.83;;;18.00;78.50;17.10;96221.00;;;;5077464;28;20294;-83
2023/09/23 05:14:44;;;;;;;0.80;0.80;;;18.00;78.50;17.10;96227.00;;;;5072484;28;20268;-83
2023/09/23 05:17:14;;;;;;;0.80;0.80;;;18.00;78.60;17.10;96231.00;;;;5075927;28;20268;-83
2023/09/23 05:19:42;;;;;;;0.63;0.63;;;18.00;78.70;17.10;96232.00;;;;5057925;28;20227;-83
2023/09/23 05:22:10;;;;;;;0.90;0.83;;;18.00;78.60;17.10;96231.00;;;;5076042;28;20640;-83
2023/09/23 05:24:39;;;;;;;1.13;1.00;;;18.00;78.40;17.10;96238.00;;;;5062919;28;20223;-83
2023/09/23 05:27:06;;;;;;;0.77;0.77;;;18.00;78.20;17.10;96248.00;;;;5071276;28;20722;-83
2023/09/23 05:29:33;;;;;;;0.80;0.80;;;18.00;78.30;17.10;96239.00;;;;5070334;28;20675;-83
2023/09/23 05:32:03;;;;;;;1.00;0.70;;;18.00;78.20;17.10;96247.00;;;;5078328;28;20251;-83
2023/09/23 05:34:30;;;;;;;0.90;0.90;;;18.00;78.30;17.10;96249.00;;;;5069244;28;20668;-83
2023/09/23 05:36:57;;;;;;;0.93;0.73;;;18.00;78.40;17.10;96252.00;;;;5075066;28;20203;-83
2023/09/23 05:39:24;;;;;;;1.07;0.70;;;18.00;78.50;17.10;96258.00;;;;5079019;28;20260;-84
2023/09/23 05:41:53;;;;;;;0.80;0.77;;;18.00;78.60;17.10;96264.00;;;;5077288;28;20283;-83
2023/09/23 05:44:21;;;;;;;1.17;1.00;;;18.00;78.60;17.10;96264.00;;;;5077101;28;20722;-83
2023/09/23 05:46:49;;;;;;;0.80;0.80;;;18.00;78.50;17.10;96267.00;;;;5066878;28;20327;-83
2023/09/23 05:49:18;;;;;;;0.70;0.70;;;18.00;78.40;17.10;96268.00;;;;5079999;28;20200;-82
2023/09/23 05:51:46;;;;;;;1.53;1.00;;;18.00;78.40;17.10;96275.00;;;;5081031;28;20223;-83
2023/09/23 05:54:15;;;;;;;1.37;0.90;;;18.00;78.40;17.10;96272.00;;;;5078959;28;20200;-83
2023/09/23 05:56:43;;;;;;;0.60;0.60;;;18.00;78.40;17.10;96276.00;;;;5077393;28;20247;-83
2023/09/23 05:59:10;;;;;;;0.97;0.87;;;18.00;78.80;17.10;96279.00;;;;5075975;28;20193;-83
2023/09/23 06:01:40;;;;;;;0.70;0.70;;;18.00;78.30;17.10;96286.00;;;;5078281;28;20751;-83
2023/09/23 06:04:09;;;;;;;1.00;1.00;;;18.00;78.80;17.00;96302.00;;;;5070901;28;20667;-83
2023/09/23 06:06:41;;;;;;;1.10;1.07;;;18.00;78.10;17.00;96304.00;;;;5072859;28;20207;-83
2023/09/23 06:09:09;;;;;;;0.80;0.80;;;18.00;78.00;17.00;96314.00;;;;5095790;28;20196;-83
2023/09/23 06:11:37;;;;;;;1.00;1.00;;;18.00;77.90;17.00;96311.00;;;;5079607;28;20228;-83
2023/09/23 06:14:04;;;;;;;0.77;0.77;;;18.00;77.80;17.00;96318.00;;;;5080353;28;20561;-83
2023/09/23 06:16:31;;;;;;;1.03;1.03;;;17.90;77.90;17.00;96324.00;;;;5079155;28;20232;-83
2023/09/23 06:19:02;;;;;;;1.30;0.90;;;17.90;77.80;17.00;96327.00;;;;5080115;28;20211;-84
2023/09/23 06:21:29;;;;;;;3.80;1.23;;;17.90;77.60;17.00;96330.00;;;;5079114;28;20211;-83
2023/09/23 06:23:57;;;;;;;0.97;0.97;;;17.90;77.80;17.00;96327.00;;;;5075545;28;20294;-83
2023/09/23 06:26:43;;;;;;;0.87;0.87;;;17.90;77.90;17.00;96325.00;;;;5071717;28;20298;-83
2023/09/23 06:29:10;;;;;;;0.80;0.80;;;17.90;77.90;17.00;96326.00;;;;5071829;28;20283;-83
2023/09/23 06:31:37;;;;;;;0.57;0.57;;;17.90;77.80;17.00;96323.00;;;;5077876;28;20199;-83
2023/09/23 06:34:06;;;;;;;0.90;0.90;;;17.90;77.50;17.00;96338.00;;;;5077845;28;20255;-83
2023/09/23 06:36:34;;;;;;;1.23;0.97;;;17.90;77.30;17.00;96339.00;;;;5072725;28;20279;-86
2023/09/23 06:39:03;;;;;;;0.80;0.80;;;17.90;77.10;17.00;96340.00;;;;5071730;28;20259;-85
2023/09/23 06:41:30;;;;;;;0.60;0.60;;;17.90;77.20;17.00;96348.00;;;;5071619;28;20232;-85
2023/09/23 06:43:58;;;;;;;0.77;0.77;;;17.90;77.40;16.90;96347.00;;;;5068102;28;20202;-85
2023/09/23 06:46:25;;;;;;;1.60;0.90;;;17.90;77.40;17.00;96354.00;;;;5063747;28;20685;-84
2023/09/23 06:48:53;;;;;;;2.00;1.00;;;17.90;78.20;17.00;96353.00;;;;5069089;28;20200;-86
2023/09/23 06:51:20;;;;;;;1.10;1.00;;;17.90;77.60;17.00;96349.00;;;;5062789;28;20192;-84
2023/09/23 06:53:48;;;;;;;1.10;1.00;;;17.90;77.70;17.00;96355.00;;;;5074278;28;20224;-85
2023/09/23 06:56:16;;;;;;;1.00;0.90;;;17.90;77.60;17.00;96355.00;;;;5079153;28;20255;-84
2023/09/23 06:58:44;;;;;;;0.63;0.63;;;18.00;77.60;17.10;96360.00;;;;5068359;28;20284;-85
2023/09/23 07:01:11;;;;;;;0.77;0.77;;;18.00;77.60;17.10;96369.00;;;;5076471;28;20263;-83
2023/09/23 07:03:38;;;;;;;0.90;0.90;;;18.00;77.50;17.10;96373.00;;;;5075055;28;20207;-83
2023/09/23 07:06:05;;;;;;;1.27;0.97;;;18.00;77.50;17.10;96368.00;;;;5078017;28;20247;-83
2023/09/23 07:08:32;;;;;;;1.23;0.80;;;18.00;77.40;17.10;96367.00;;;;5081412;28;20260;-83
2023/09/23 07:10:59;;;;;;;0.70;0.70;;;18.00;77.50;17.10;96381.00;;;;5067857;28;20188;-84
2023/09/23 07:13:28;;;;;;;0.70;0.70;;;18.00;77.70;17.10;96376.00;;;;5075017;28;20234;-83
2023/09/23 07:15:55;;;;;;;0.80;0.80;;;18.10;77.80;17.10;96380.00;;;;5082465;28;20289;-83
2023/09/23 07:18:22;;;;;;;0.80;0.70;;;18.10;77.80;17.20;96388.00;;;;5074532;28;20203;-84
2023/09/23 07:20:49;;;;;;;0.70;0.70;;;18.10;77.30;17.20;96396.00;;;;5079640;28;20200;-81
2023/09/23 07:23:17;;;;;;;0.80;0.80;;;18.10;77.30;17.20;96392.00;;;;5087671;28;20267;-84
2023/09/23 07:25:45;;;;;;;0.63;0.63;;;18.10;77.20;17.20;96398.00;;;;5085716;28;20276;-84
2023/09/23 07:28:12;;;;;;;0.60;0.60;;;18.10;77.00;17.20;96402.00;;;;5087362;28;20196;-83
2023/09/23 07:30:41;;;;;;;0.90;0.60;;;18.10;76.70;17.20;96412.00;;;;5083436;28;20204;-84
2023/09/23 07:33:08;;;;;;;1.17;0.50;;;18.10;75.90;17.20;96412.00;;;;5079248;28;20242;-88
2023/09/23 07:35:36;;;;;;;0.83;0.70;;;18.10;76.10;17.20;96417.00;;;;5080602;28;20216;-83
2023/09/23 07:38:04;;;;;;;0.83;0.60;;;18.10;76.60;17.20;96422.00;;;;5084140;28;20411;-84
2023/09/23 07:40:32;;;;;;;0.50;0.50;;;18.10;76.70;17.20;96435.00;;;;5080050;28;20268;-86
2023/09/23 07:42:59;;;;;;;0.60;0.60;;;18.20;76.70;17.20;96443.00;;;;5079479;28;20279;-83
2023/09/23 07:45:26;;;;;;;1.97;0.63;;;18.30;76.90;17.20;96446.00;;;;5083835;28;20287;-84
2023/09/23 07:47:55;;;;;;;0.77;0.50;;;18.20;77.00;17.30;96447.00;;;;5088687;28;20204;-84
2023/09/23 07:50:23;;;;;;;0.60;0.50;;;18.20;77.10;17.30;96456.00;;;;5076119;28;20204;-83
2023/09/23 07:52:50;;;;;;;0.50;0.50;;;18.20;76.80;17.30;96458.00;;;;5068953;28;20278;-83
2023/09/23 07:55:17;;;;;;;0.50;0.50;;;18.20;76.80;17.30;96466.00;;;;5069547;28;20321;-83
2023/09/23 07:57:45;;;;;;;1.57;0.50;;;18.20;76.90;17.30;96467.00;;;;5079540;28;20605;-84
2023/09/23 08:00:19;;;;;;;0.40;0.40;;;18.30;76.90;17.30;96473.00;;;;5081146;28;20610;-85
2023/09/23 08:02:47;;;;;;;0.40;0.40;;;18.30;76.70;17.30;96474.00;;;;5075205;28;20259;-83
2023/09/23 08:05:16;;;;;;;0.50;0.50;;;18.30;76.40;17.40;96484.00;;;;5073356;28;20216;-83
2023/09/23 08:07:43;;;;;;;0.47;0.47;;;18.30;76.40;17.40;96484.00;;;;5066591;28;20204;-83
2023/09/23 08:10:11;;;;;;;0.50;0.50;;;18.30;76.00;17.40;96495.00;;;;5080947;28;20291;-84
2023/09/23 08:12:41;;;;;;;0.30;0.30;;;18.30;75.80;17.40;96497.00;;;;5077467;28;20283;-84
2023/09/23 08:15:11;;;;;;;0.47;0.43;;;18.30;76.10;17.40;96510.00;;;;5068436;28;20227;-89
2023/09/23 08:17:39;;;;;;;0.40;0.40;;;18.30;76.20;17.40;96511.00;;;;5075126;28;20246;-83
2023/09/23 08:20:17;;;;;;;0.50;0.40;;;18.30;76.20;17.40;96517.00;;;;5086757;28;20203;-85
2023/09/23 08:22:46;;;;;;;0.30;0.30;;;18.30;76.00;17.40;96520.00;;;;5080898;28;20204;-85
2023/09/23 08:25:13;;;;;;;0.50;0.40;;;18.30;75.50;17.40;96514.00;;;;5072277;28;20299;-85
2023/09/23 08:27:42;;;;;;;0.50;0.50;;;18.30;75.40;17.60;96509.00;;;;5081453;28;20495;-83
2023/09/23 08:30:10;;;;;;;0.37;0.30;;;18.10;75.30;17.50;96518.00;;;;5081601;28;20283;-85
2023/09/23 08:32:37;;;;;;;0.40;0.40;;;18.20;75.20;17.50;96521.00;;;;5073686;28;20224;-84
2023/09/23 08:35:07;;;;;;;0.60;0.47;;;18.20;75.20;17.50;96525.00;;;;5064810;28;20303;-85
2023/09/23 08:37:34;;;;;;;0.57;0.40;;;18.30;75.40;17.50;96528.00;;;;5066190;28;20287;-84
2023/09/23 08:40:06;;;;;;;0.40;0.40;;;18.30;74.90;17.50;96531.00;;;;5072674;28;20226;-83
2023/09/23 08:42:35;;;;;;;0.53;0.53;;;18.40;74.70;17.50;96529.00;;;;5074677;28;20196;-84
2023/09/23 08:45:07;;;;;;;0.30;0.27;;;18.40;74.70;17.50;96526.00;;;;5066722;28;20300;-84
2023/09/23 08:47:36;;;;;;;0.50;0.30;;;18.40;74.50;17.60;96525.00;;;;5069037;28;20203;-85
2023/09/23 08:50:05;;;;;;;0.30;0.30;;;18.40;75.00;17.60;96536.00;;;;5070803;28;20291;-86
2023/09/23 08:52:34;;;;;;;0.40;0.40;;;18.50;75.50;17.60;96531.00;;;;5074858;28;21524;-85
2023/09/23 08:55:04;;;;;;;0.27;0.27;;;18.50;75.60;17.60;96529.00;;;;5079193;28;20614;-84
2023/09/23 08:57:32;;;;;;;0.60;0.40;;;18.50;75.30;17.70;96537.00;;;;5066063;28;20197;-85
2023/09/23 09:00:00;;;;;;;0.40;0.30;;;18.50;74.90;17.70;96538.00;;;;5068190;28;20196;-86
2023/09/23 09:02:28;;;;;;;0.40;0.27;;;18.60;75.20;17.70;96543.00;;;;5059140;28;20570;-85
2023/09/23 09:04:57;;;;;;;0.67;0.30;;;18.60;75.50;17.80;96548.00;;;;5061944;28;20252;-85
2023/09/23 09:07:26;;;;;;;0.50;0.40;;;18.60;75.50;17.80;96545.00;;;;5063184;28;20210;-86
2023/09/23 09:09:54;;;;;;;1.17;0.40;;;18.60;75.20;17.80;96540.00;;;;5058687;28;20193;-87
2023/09/23 09:12:22;;;;;;;0.23;0.23;;;18.70;74.30;17.80;96555.00;;;;5062799;28;20575;-86
2023/09/23 09:14:51;;;;;;;0.40;0.40;;;18.70;74.00;17.90;96550.00;;;;5065222;28;20254;-85
2023/09/23 09:17:19;;;;;;;0.40;0.40;;;18.70;74.00;17.90;96544.00;;;;5054129;28;20234;-84
2023/09/23 09:19:47;;;;;;;0.37;0.30;;;18.70;74.10;17.90;96547.00;;;;5064391;28;20212;-84
2023/09/23 09:22:16;;;;;;;0.47;0.40;;;18.80;74.30;18.00;96548.00;;;;5065653;28;20204;-84
2023/09/23 09:24:46;;;;;;;0.33;0.33;;;18.80;74.20;18.10;96550.00;;;;5058673;28;20227;-84
2023/09/23 09:27:14;;;;;;;0.87;0.50;;;18.90;74.40;18.20;96548.00;;;;5064932;28;20192;-85
2023/09/23 09:29:43;;;;;;;0.40;0.40;;;18.90;74.10;18.20;96546.00;;;;5074221;28;20691;-86
2023/09/23 09:32:12;;;;;;;0.20;0.20;;;19.00;74.30;18.30;96550.00;;;;5060762;28;20260;-85
2023/09/23 09:34:46;;;;;;;1.10;0.57;;;19.10;74.40;18.30;96553.00;;;;5066541;28;20242;-85
2023/09/23 09:37:14;;;;;;;0.80;0.47;;;19.10;74.10;18.40;96547.00;;;;5067371;28;20214;-86
2023/09/23 09:39:51;;;;;;;0.77;0.23;;;19.20;73.80;18.40;96551.00;;;;5070294;28;20206;-87
2023/09/23 09:42:27;;;;;;;0.60;0.30;;;19.20;71.80;18.40;96549.00;;;;5067927;28;20199;-86
2023/09/23 09:44:57;;;;;;;0.57;0.30;;;19.20;71.40;18.40;96550.00;;;;5058548;28;20218;-86
2023/09/23 09:47:27;;;;;;;0.97;0.50;;;19.20;71.50;18.40;96555.00;;;;5064790;28;20201;-86
2023/09/23 09:49:54;;;;;;;0.70;0.37;;;19.30;71.90;18.40;96555.00;;;;5062099;28;20193;-85
2023/09/23 09:52:24;;;;;;;0.53;0.30;;;19.30;71.60;18.40;96556.00;;;;5064476;28;20645;-86
2023/09/23 09:54:58;;;;;;;0.83;0.30;;;19.30;71.70;18.50;96551.00;;;;5066000;28;20223;-86
2023/09/23 09:57:28;;;;;;;0.53;0.30;;;19.30;72.20;18.50;96551.00;;;;5061858;28;20197;-86
2023/09/23 10:00:08;;;;;;;0.40;0.23;;;19.40;73.10;18.60;96553.00;;;;5075026;28;20193;-85
2023/09/23 10:02:38;;;;;;;1.63;0.53;;;19.40;72.00;18.60;96551.00;;;;5057275;28;20255;-86
2023/09/23 10:05:07;;;;;;;2.00;0.47;;;19.40;72.00;18.70;96548.00;;;;5059390;28;20226;-86
2023/09/23 10:07:53;;;;;;;0.40;0.40;;;19.50;71.70;18.70;96555.00;;;;5063778;28;20208;-86
2023/09/23 10:10:32;;;;;;;0.57;0.47;;;19.50;71.00;18.70;96554.00;;;;5066410;28;20565;-86
2023/09/23 10:13:07;;;;;;;1.10;0.47;;;19.50;71.20;18.70;96555.00;;;;5072127;28;20215;-86
2023/09/23 10:15:40;;;;;;;0.20;0.20;;;19.60;71.00;18.70;96551.00;;;;5065032;28;20226;-87
2023/09/23 10:18:13;;;;;;;0.30;0.30;;;19.50;71.00;18.80;96560.00;;;;5063527;28;20870;-86
2023/09/23 10:20:43;;;;;;;0.40;0.40;;;19.60;71.90;18.80;96556.00;;;;5068110;28;20295;-86
2023/09/23 10:23:23;;;;;;;0.80;0.30;;;19.60;71.00;18.80;96556.00;;;;5073984;28;20244;-86
2023/09/23 10:25:52;;;;;;;0.80;0.40;;;19.60;69.60;18.90;96551.00;;;;5066254;28;20232;-86
2023/09/23 10:28:23;;;;;;;0.40;0.40;;;19.70;70.80;18.90;96542.00;;;;5065092;28;21143;-86
2023/09/23 10:31:03;;;;;;;0.97;0.20;;;19.70;69.80;18.90;96553.00;;;;5069147;28;20254;-86
2023/09/23 10:33:34;;;;;;;0.67;0.30;;;19.70;69.10;18.90;96538.00;;;;5066870;28;20228;-86
2023/09/23 10:36:03;;;;;;;1.07;0.30;;;19.70;70.10;19.00;96538.00;;;;5069107;28;20241;-86
2023/09/23 10:38:34;;;;;;;0.50;0.40;;;19.80;71.20;19.10;96550.00;;;;5061274;28;20200;-86
2023/09/23 10:41:04;;;;;;;0.40;0.40;;;19.80;69.70;19.20;96548.00;;;;5062208;28;20724;-87
2023/09/23 10:43:32;;;;;;;0.90;0.40;;;19.80;69.20;19.20;96553.00;;;;5064810;28;20699;-86
2023/09/23 10:46:02;;;;;;;0.40;0.33;;;19.90;69.00;19.30;96554.00;;;;5078969;28;20224;-86
2023/09/23 10:48:31;;;;;;;0.30;0.30;;;20.00;68.70;19.30;96555.00;;;;5058101;28;20570;-86
2023/09/23 10:50:59;;;;;;;0.70;0.27;;;20.00;67.70;19.30;96559.00;;;;5058490;28;20196;-87
2023/09/23 10:53:28;;;;;;;0.30;0.20;;;20.10;67.50;19.40;96565.00;;;;5082134;28;20231;-85
2023/09/23 10:55:59;;;;;;;0.47;0.43;;;20.10;67.10;19.40;96571.00;;;;5058228;28;20272;-86
2023/09/23 10:58:27;;;;;;;0.20;0.20;;;20.10;65.90;19.40;96565.00;;;;5066336;28;20186;-86
2023/09/23 11:00:57;;;;;;;0.70;0.40;;;20.10;66.10;19.40;96568.00;;;;5066997;28;20201;-86
2023/09/23 11:03:26;;;;;;;0.63;0.40;;;20.20;66.50;19.40;96563.00;;;;5067615;28;20218;-85